This is the latest recevied weather packets stored in our database for station/object KA1GJU-3. If no packets are shown the sender has not sent any weather packets the latest 1 day(s).
| Time | Temp. | Humidity | Pressure | Rain* | Wind** | Luminosity | Snow |
|---|---|---|---|---|---|---|---|
| 1777996457 | 25.56° C | 100% | 0 hPa | 0 mm | 2.68 m/s, 255° | - | - |
| 1777995857 | 25° C | 100% | 0 hPa | 0 mm | 3.13 m/s, 284° | - | - |
| 1777995257 | 25° C | 100% | 0 hPa | 0 mm | 1.34 m/s, 229° | - | - |
| 1777994657 | 23.89° C | 100% | 0 hPa | 0 mm | 1.79 m/s, 199° | - | - |
| 1777994057 | 23.89° C | 100% | 0 hPa | 0 mm | 1.34 m/s, 247° | - | - |
| 1777993457 | 23.89° C | 100% | 0 hPa | 0 mm | 3.13 m/s, 216° | - | - |
| 1777992857 | 23.33° C | 100% | 0 hPa | 0 mm | 2.68 m/s, 241° | - | - |
| 1777992257 | 23.89° C | 100% | 0 hPa | 0 mm | 1.79 m/s, 196° | - | - |
| 1777991657 | 22.22° C | 100% | 0 hPa | 0 mm | 2.68 m/s, 237° | - | - |
| 1777991057 | 22.22° C | 100% | 0 hPa | 0 mm | 2.24 m/s, 251° | - | - |
| 1777990457 | 21.67° C | 100% | 0 hPa | 0 mm | 2.68 m/s, 187° | - | - |
| 1777989857 | 20.56° C | 100% | 0 hPa | 0 mm | 1.79 m/s, 251° | - | - |
| 1777989257 | 20° C | 100% | 0 hPa | 0 mm | 3.13 m/s, 251° | - | - |
| 1777988657 | 20.56° C | 100% | 0 hPa | 0 mm | 5.36 m/s, 225° | - | - |
| 1777988057 | 18.89° C | 100% | 0 hPa | 0 mm | 1.79 m/s, 250° | - | - |
| 1777987457 | 18.89° C | 100% | 0 hPa | 0 mm | 2.68 m/s, 267° | - | - |
| 1777986857 | 20° C | 100% | 0 hPa | 0 mm | 4.92 m/s, 219° | - | - |
| 1777986257 | 20° C | 100% | 0 hPa | 0 mm | 2.24 m/s, 233° | - | - |
| 1777985657 | 18.33° C | 100% | 0 hPa | 0 mm | 3.13 m/s, 270° | - | - |
| 1777985057 | 18.89° C | 100% | 0 hPa | 0 mm | 2.24 m/s, 234° | - | - |
| 1777984457 | 17.78° C | 100% | 0 hPa | 0 mm | 2.24 m/s, 261° | - | - |
| 1777983857 | 17.22° C | 100% | 0 hPa | 0 mm | 2.24 m/s, 260° | - | - |
| 1777983257 | 17.78° C | 100% | 0 hPa | 0 mm | 2.24 m/s, 240° | - | - |
| 1777982657 | 17.22° C | 100% | 0 hPa | 0 mm | 2.24 m/s, 217° | - | - |
| 1777982057 | 17.22° C | 100% | 0 hPa | 0 mm | 3.13 m/s, 241° | - | - |
* Rain latest hour (hover to see other rain measurements)
** Current wind speed in m/s (hover to see current wind gust speed)